Station Historical Data
Daily Summary for February 21, 2017 Units:  English    Metric   Both
« Previous Day
Next Day »
Daily Weekly Monthly Yearly Custom
  High: Low: Average:
Temperature: 60.3 °F 30.7 °F 44.6 °F
Dew Point: 43.0 °F 19.6 °F 32.4 °F
Humidity: 88% 40% 64%
Wind Speed: 9.0mph 0.0mph 2.3mph
Wind Gust: 15.0mph - -
Wind- - South
Pressure: 30.25 in 29.92 in -
Precipitation: 0.00 in    
Historical Graphs
 
 
Tabular Data for February 21, 2017
Time Temperature Dew Point Pressure Wind Wind Speed Wind Gust Humidity Rainfall Rate (Hourly)
00:04 30.8 °F 19.7 °F 30.25 in ENE 4.0 mph 10.0 mph 63% 0.00 in
00:09 30.9 °F 19.8 °F 30.25 in ENE 4.0 mph 10.0 mph 63% 0.00 in
00:14 30.9 °F 19.8 °F 30.25 in ENE 4.0 mph 9.0 mph 63% 0.00 in
00:19 30.9 °F 19.8 °F 30.25 in ENE 3.0 mph 7.0 mph 63% 0.00 in
00:24 30.9 °F 19.8 °F 30.25 in NE 2.0 mph 7.0 mph 63% 0.00 in
00:29 30.9 °F 19.8 °F 30.25 in NE 2.0 mph 5.0 mph 63% 0.00 in
00:34 30.8 °F 19.7 °F 30.25 in ENE 2.0 mph 6.0 mph 63% 0.00 in
00:39 30.8 °F 19.7 °F 30.24 in ENE 3.0 mph 9.0 mph 63% 0.00 in
00:44 30.7 °F 19.6 °F 30.24 in ENE 3.0 mph 9.0 mph 63% 0.00 in
00:49 30.7 °F 20.0 °F 30.23 in ENE 3.0 mph 8.0 mph 64% 0.00 in
00:54 31.0 °F 20.2 °F 30.23 in ENE 2.0 mph 9.0 mph 64% 0.00 in
00:59 31.0 °F 19.9 °F 30.23 in NE 1.0 mph 5.0 mph 63% 0.00 in
01:04 30.9 °F 20.1 °F 30.23 in NE 1.0 mph 5.0 mph 64% 0.00 in
01:09 31.0 °F 20.2 °F 30.23 in ENE 2.0 mph 6.0 mph 64% 0.00 in
01:14 31.1 °F 20.3 °F 30.23 in ENE 2.0 mph 6.0 mph 64% 0.00 in
01:19 31.1 °F 20.3 °F 30.22 in ENE 2.0 mph 5.0 mph 64% 0.00 in
01:24 31.1 °F 20.7 °F 30.22 in ENE 2.0 mph 4.0 mph 65% 0.00 in
01:29 31.1 °F 20.7 °F 30.22 in NE 2.0 mph 5.0 mph 65% 0.00 in
01:34 31.3 °F 20.9 °F 30.22 in NE 4.0 mph 5.0 mph 65% 0.00 in
01:39 31.4 °F 21.0 °F 30.22 in NE 3.0 mph 5.0 mph 65% 0.00 in
01:44 31.4 °F 21.0 °F 30.22 in NE 3.0 mph 7.0 mph 65% 0.00 in
01:49 31.4 °F 21.0 °F 30.21 in NE 3.0 mph 7.0 mph 65% 0.00 in
01:54 31.4 °F 21.3 °F 30.21 in ENE 2.0 mph 6.0 mph 66% 0.00 in
01:59 31.6 °F 21.5 °F 30.21 in NE 2.0 mph 5.0 mph 66% 0.00 in
02:04 31.7 °F 21.6 °F 30.20 in NE 3.0 mph 5.0 mph 66% 0.00 in
02:09 31.7 °F 21.6 °F 30.20 in NE 3.0 mph 6.0 mph 66% 0.00 in
02:14 31.8 °F 21.7 °F 30.20 in NE 2.0 mph 6.0 mph 66% 0.00 in
02:19 31.9 °F 21.8 °F 30.20 in NE 2.0 mph 4.0 mph 66% 0.00 in
02:24 31.8 °F 21.7 °F 30.20 in NE 1.0 mph 4.0 mph 66% 0.00 in
02:29 31.9 °F 21.8 °F 30.19 in NE 3.0 mph 4.0 mph 66% 0.00 in
02:34 31.9 °F 22.2 °F 30.19 in NE 2.0 mph 3.0 mph 67% 0.00 in
02:39 32.0 °F 21.9 °F 30.19 in ENE 2.0 mph 4.0 mph 66% 0.00 in
02:44 32.2 °F 22.1 °F 30.19 in ENE 2.0 mph 4.0 mph 66% 0.00 in
02:49 32.4 °F 22.3 °F 30.19 in ENE 2.0 mph 4.0 mph 66% 0.00 in
02:54 32.4 °F 22.3 °F 30.19 in ENE 2.0 mph 5.0 mph 66% 0.00 in
02:59 32.5 °F 22.4 °F 30.18 in ENE 2.0 mph 5.0 mph 66% 0.00 in
03:04 32.5 °F 22.4 °F 30.18 in ENE 2.0 mph 5.0 mph 66% 0.00 in
03:09 32.6 °F 22.5 °F 30.18 in ENE 1.0 mph 3.0 mph 66% 0.00 in
03:14 32.6 °F 22.5 °F 30.17 in ENE 3.0 mph 5.0 mph 66% 0.00 in
03:19 32.7 °F 22.6 °F 30.17 in NE 3.0 mph 4.0 mph 66% 0.00 in
03:24 32.7 °F 22.6 °F 30.16 in ENE 2.0 mph 5.0 mph 66% 0.00 in
03:29 33.0 °F 22.9 °F 30.16 in NE 2.0 mph 5.0 mph 66% 0.00 in
03:34 33.0 °F 22.9 °F 30.17 in Calm   3.0 mph 66% 0.00 in
03:39 33.1 °F 23.0 °F 30.17 in Calm     66% 0.00 in
03:44 33.0 °F 23.2 °F 30.17 in Calm     67% 0.00 in
03:49 32.8 °F 23.0 °F 30.17 in Calm     67% 0.00 in
03:54 32.7 °F 22.9 °F 30.17 in Calm     67% 0.00 in
03:59 32.4 °F 23.0 °F 30.16 in Calm     68% 0.00 in
04:04 32.6 °F 23.2 °F 30.16 in Calm     68% 0.00 in
04:09 32.7 °F 23.3 °F 30.16 in Calm     68% 0.00 in
04:14 32.8 °F 23.4 °F 30.16 in Calm     68% 0.00 in
04:19 32.8 °F 23.4 °F 30.15 in Calm     68% 0.00 in
04:24 32.7 °F 23.3 °F 30.15 in Calm     68% 0.00 in
04:29 33.2 °F 23.4 °F 30.15 in Calm     67% 0.00 in
04:34 33.4 °F 23.6 °F 30.14 in Calm     67% 0.00 in
04:39 33.7 °F 23.5 °F 30.14 in Calm     66% 0.00 in
04:44 33.8 °F 23.6 °F 30.14 in Calm     66% 0.00 in
04:49 34.0 °F 23.5 °F 30.14 in Calm     65% 0.00 in
04:54 33.5 °F 23.4 °F 30.14 in Calm     66% 0.00 in
04:59 33.2 °F 23.4 °F 30.14 in Calm     67% 0.00 in
05:04 32.7 °F 23.3 °F 30.14 in Calm     68% 0.00 in
05:09 32.3 °F 22.9 °F 30.14 in Calm     68% 0.00 in
05:14 32.0 °F 23.0 °F 30.14 in Calm     69% 0.00 in
05:19 31.7 °F 23.0 °F 30.13 in Calm     70% 0.00 in
05:24 32.0 °F 23.3 °F 30.13 in Calm     70% 0.00 in
05:29 32.2 °F 23.2 °F 30.12 in Calm     69% 0.00 in
05:34 32.0 °F 23.0 °F 30.12 in Calm     69% 0.00 in
05:39 32.5 °F 23.8 °F 30.11 in Calm     70% 0.00 in
05:44 33.3 °F 23.9 °F 30.11 in Calm   2.0 mph 68% 0.00 in
05:49 34.0 °F 24.2 °F 30.11 in Calm   3.0 mph 67% 0.00 in
05:54 34.4 °F 24.2 °F 30.11 in Calm   2.0 mph 66% 0.00 in
05:59 35.0 °F 24.4 °F 30.10 in Calm   3.0 mph 65% 0.00 in
06:04 35.2 °F 24.2 °F 30.10 in Calm   2.0 mph 64% 0.00 in
06:09 35.4 °F 24.4 °F 30.11 in Calm   2.0 mph 64% 0.00 in
06:14 35.1 °F 24.5 °F 30.11 in Calm     65% 0.00 in
06:19 34.7 °F 24.5 °F 30.12 in Calm     66% 0.00 in
06:24 34.7 °F 24.1 °F 30.11 in Calm     65% 0.00 in
06:29 34.6 °F 24.4 °F 30.11 in Calm     66% 0.00 in
06:34 35.0 °F 24.8 °F 30.10 in East 1.0 mph 3.0 mph 66% 0.00 in
06:39 35.8 °F 24.8 °F 30.10 in East 1.0 mph 3.0 mph 64% 0.00 in
06:44 35.9 °F 24.9 °F 30.10 in Calm   1.0 mph 64% 0.00 in
06:49 35.5 °F 24.5 °F 30.09 in Calm   2.0 mph 64% 0.00 in
06:54 35.9 °F 24.5 °F 30.09 in Calm   2.0 mph 63% 0.00 in
06:59 36.0 °F 24.6 °F 30.09 in Calm   1.0 mph 63% 0.00 in
07:04 35.4 °F 25.2 °F 30.09 in Calm     66% 0.00 in
07:09 35.3 °F 25.1 °F 30.09 in Calm     66% 0.00 in
07:14 35.3 °F 25.1 °F 30.09 in Calm     66% 0.00 in
07:19 35.7 °F 25.4 °F 30.09 in Calm     66% 0.00 in
07:24 35.6 °F 25.7 °F 30.09 in Calm     67% 0.00 in
07:29 35.2 °F 25.7 °F 30.10 in Calm     68% 0.00 in
07:34 34.9 °F 25.4 °F 30.10 in Calm     68% 0.00 in
07:39 34.8 °F 25.3 °F 30.10 in Calm     68% 0.00 in
07:44 34.8 °F 25.7 °F 30.09 in Calm     69% 0.00 in
07:49 34.8 °F 25.7 °F 30.09 in Calm     69% 0.00 in
07:54 36.2 °F 26.3 °F 30.09 in SE 3.0 mph 3.0 mph 67% 0.00 in
07:59 37.7 °F 26.2 °F 30.08 in Calm   3.0 mph 63% 0.00 in
08:04 38.2 °F 26.3 °F 30.08 in Calm   3.0 mph 62% 0.00 in
08:09 38.7 °F 26.8 °F 30.07 in ESE 1.0 mph 4.0 mph 62% 0.00 in
08:14 39.0 °F 26.7 °F 30.07 in ESE 1.0 mph 4.0 mph 61% 0.00 in
08:19 39.6 °F 26.8 °F 30.07 in SE 2.0 mph 4.0 mph 60% 0.00 in
08:24 40.2 °F 27.0 °F 30.08 in SE 2.0 mph 4.0 mph 59% 0.00 in
08:29 40.8 °F 27.2 °F 30.08 in SSE 2.0 mph 3.0 mph 58% 0.00 in
08:34 41.3 °F 27.6 °F 30.08 in South 1.0 mph 4.0 mph 58% 0.00 in
08:39 42.0 °F 27.9 °F 30.07 in SSE 2.0 mph 3.0 mph 57% 0.00 in
08:44 42.6 °F 27.5 °F 30.08 in South 1.0 mph 4.0 mph 55% 0.00 in
08:49 42.8 °F 28.2 °F 30.08 in SSE 1.0 mph 3.0 mph 56% 0.00 in
08:54 43.3 °F 27.8 °F 30.07 in SE 2.0 mph 4.0 mph 54% 0.00 in
08:59 43.5 °F 27.9 °F 30.06 in Calm   5.0 mph 54% 0.00 in
09:04 44.3 °F 28.2 °F 30.06 in SSE 2.0 mph 3.0 mph 53% 0.00 in
09:09 44.9 °F 28.3 °F 30.06 in SSE 2.0 mph 3.0 mph 52% 0.00 in
09:14 44.9 °F 27.8 °F 30.05 in SSE 2.0 mph 5.0 mph 51% 0.00 in
09:19 45.0 °F 28.4 °F 30.06 in SE 2.0 mph 5.0 mph 52% 0.00 in
09:24 45.4 °F 28.3 °F 30.06 in SE 1.0 mph 4.0 mph 51% 0.00 in
09:29 45.9 °F 28.3 °F 30.06 in South 1.0 mph 4.0 mph 50% 0.00 in
09:34 46.4 °F 29.2 °F 30.06 in South 2.0 mph 4.0 mph 51% 0.00 in
09:39 47.1 °F 29.4 °F 30.06 in SSW 3.0 mph 5.0 mph 50% 0.00 in
09:44 47.5 °F 29.3 °F 30.05 in SSE 4.0 mph 6.0 mph 49% 0.00 in
09:49 47.9 °F 29.6 °F 30.05 in South 3.0 mph 6.0 mph 49% 0.00 in
09:54 48.2 °F 30.4 °F 30.04 in South 4.0 mph 5.0 mph 50% 0.00 in
09:59 48.8 °F 30.0 °F 30.05 in SSW 2.0 mph 6.0 mph 48% 0.00 in
10:04 49.3 °F 30.4 °F 30.04 in SSW 1.0 mph 8.0 mph 48% 0.00 in
10:09 49.6 °F 30.2 °F 30.04 in SSE 4.0 mph 7.0 mph 47% 0.00 in
10:14 49.9 °F 30.5 °F 30.03 in South 2.0 mph 8.0 mph 47% 0.00 in
10:19 50.3 °F 30.8 °F 30.03 in SSE 3.0 mph 7.0 mph 47% 0.00 in
10:24 50.7 °F 30.7 °F 30.03 in South 3.0 mph 7.0 mph 46% 0.00 in
10:29 51.3 °F 31.7 °F 30.04 in SSW 3.0 mph 7.0 mph 47% 0.00 in
10:34 51.9 °F 31.2 °F 30.04 in SSW 3.0 mph 7.0 mph 45% 0.00 in
10:39 52.5 °F 31.2 °F 30.03 in South 4.0 mph 8.0 mph 44% 0.00 in
10:44 53.1 °F 31.2 °F 30.04 in South 5.0 mph 8.0 mph 43% 0.00 in
10:49 53.5 °F 31.0 °F 30.04 in SSE 4.0 mph 9.0 mph 42% 0.00 in
10:54 53.8 °F 31.2 °F 30.03 in SSW 5.0 mph 13.0 mph 42% 0.00 in
10:59 53.9 °F 31.3 °F 30.03 in SSW 5.0 mph 13.0 mph 42% 0.00 in
11:04 53.9 °F 31.3 °F 30.03 in SW 4.0 mph 11.0 mph 42% 0.00 in
11:09 54.1 °F 30.9 °F 30.03 in South 6.0 mph 10.0 mph 41% 0.00 in
11:14 54.4 °F 31.8 °F 30.03 in SSE 7.0 mph 9.0 mph 42% 0.00 in
11:19 54.4 °F 31.8 °F 30.03 in SSW 9.0 mph 11.0 mph 42% 0.00 in
11:24 54.7 °F 31.4 °F 30.02 in SW 7.0 mph 15.0 mph 41% 0.00 in
11:29 54.9 °F 31.6 °F 30.02 in SSW 7.0 mph 15.0 mph 41% 0.00 in
11:34 55.0 °F 31.1 °F 30.01 in SSW 7.0 mph 14.0 mph 40% 0.00 in
11:39 55.2 °F 31.9 °F 30.01 in SSW 7.0 mph 14.0 mph 41% 0.00 in
11:44 55.0 °F 31.7 °F 30.01 in SSW 7.0 mph 14.0 mph 41% 0.00 in
11:49 55.2 °F 32.5 °F 30.01 in SSW 7.0 mph 14.0 mph 42% 0.00 in
11:54 55.3 °F 32.0 °F 30.01 in SSW 7.0 mph 13.0 mph 41% 0.00 in
11:59 55.3 °F 32.0 °F 30.01 in SSW 4.0 mph 12.0 mph 41% 0.00 in
12:04 55.3 °F 32.6 °F 30.00 in South 4.0 mph 11.0 mph 42% 0.00 in
12:09 55.4 °F 32.7 °F 30.00 in SSW 4.0 mph 9.0 mph 42% 0.00 in
12:14 55.5 °F 32.8 °F 30.00 in SSW 4.0 mph 12.0 mph 42% 0.00 in
12:19 55.7 °F 33.5 °F 29.99 in SSW 3.0 mph 7.0 mph 43% 0.00 in
12:24 56.0 °F 33.2 °F 29.99 in WSW 6.0 mph 8.0 mph 42% 0.00 in
12:29 56.2 °F 34.0 °F 29.98 in South 3.0 mph 7.0 mph 43% 0.00 in
12:34 56.3 °F 33.5 °F 29.98 in South 4.0 mph 8.0 mph 42% 0.00 in
12:39 56.6 °F 33.8 °F 29.98 in SSW 4.0 mph 9.0 mph 42% 0.00 in
12:44 56.9 °F 34.6 °F 29.97 in SSW 4.0 mph 11.0 mph 43% 0.00 in
12:49 57.3 °F 35.0 °F 29.97 in SSW 4.0 mph 11.0 mph 43% 0.00 in
12:54 57.8 °F 35.4 °F 29.97 in SSW 5.0 mph 9.0 mph 43% 0.00 in
12:59 58.4 °F 35.4 °F 29.97 in SSW 5.0 mph 11.0 mph 42% 0.00 in
13:04 58.6 °F 36.2 °F 29.97 in SSW 4.0 mph 10.0 mph 43% 0.00 in
13:09 58.6 °F 36.2 °F 29.97 in SSW 5.0 mph 10.0 mph 43% 0.00 in
13:14 58.6 °F 36.2 °F 29.97 in SW 3.0 mph 9.0 mph 43% 0.00 in
13:19 58.8 °F 36.9 °F 29.97 in SW 3.0 mph 7.0 mph 44% 0.00 in
13:24 59.4 °F 36.9 °F 29.97 in SSW 7.0 mph 7.0 mph 43% 0.00 in
13:29 59.5 °F 37.0 °F 29.97 in SSW 2.0 mph 7.0 mph 43% 0.00 in
13:34 59.2 °F 36.1 °F 29.97 in SSW 6.0 mph 13.0 mph 42% 0.00 in
13:39 59.0 °F 36.5 °F 29.97 in SSW 5.0 mph 13.0 mph 43% 0.00 in
13:44 58.9 °F 36.4 °F 29.97 in SSW 5.0 mph 11.0 mph 43% 0.00 in
13:49 59.1 °F 36.6 °F 29.96 in SSW 5.0 mph 9.0 mph 43% 0.00 in
13:54 59.3 °F 36.8 °F 29.96 in SSW 5.0 mph 9.0 mph 43% 0.00 in
13:59 59.5 °F 37.0 °F 29.95 in SSW 5.0 mph 10.0 mph 43% 0.00 in
14:04 59.6 °F 37.1 °F 29.95 in South 1.0 mph 8.0 mph 43% 0.00 in
14:09 59.7 °F 37.2 °F 29.94 in SSW 6.0 mph 8.0 mph 43% 0.00 in
14:14 59.7 °F 37.2 °F 29.95 in SSW 5.0 mph 11.0 mph 43% 0.00 in
14:19 59.9 °F 37.3 °F 29.95 in South 8.0 mph 10.0 mph 43% 0.00 in
14:24 60.1 °F 37.5 °F 29.95 in South 5.0 mph 8.0 mph 43% 0.00 in
14:29 60.2 °F 37.6 °F 29.94 in South 3.0 mph 7.0 mph 43% 0.00 in
14:34 60.3 °F 37.7 °F 29.94 in SW 3.0 mph 6.0 mph 43% 0.00 in
14:39 60.2 °F 37.0 °F 29.93 in SSW 4.0 mph 11.0 mph 42% 0.00 in
14:44 60.1 °F 37.5 °F 29.93 in South 5.0 mph 11.0 mph 43% 0.00 in
14:49 60.1 °F 36.9 °F 29.93 in SSW 4.0 mph 10.0 mph 42% 0.00 in
14:54 59.9 °F 36.7 °F 29.93 in SSW 5.0 mph 12.0 mph 42% 0.00 in
14:59 59.7 °F 37.7 °F 29.93 in SSW 5.0 mph 12.0 mph 44% 0.00 in
15:04 59.6 °F 37.6 °F 29.93 in SSW 4.0 mph 10.0 mph 44% 0.00 in
15:09 59.3 °F 37.4 °F 29.92 in South 6.0 mph 9.0 mph 44% 0.00 in
15:14 59.1 °F 37.2 °F 29.93 in South 5.0 mph 9.0 mph 44% 0.00 in
15:19 59.0 °F 37.1 °F 29.93 in South 4.0 mph 9.0 mph 44% 0.00 in
15:24 58.9 °F 37.0 °F 29.93 in South 5.0 mph 8.0 mph 44% 0.00 in
15:29 58.8 °F 36.3 °F 29.93 in SW 5.0 mph 10.0 mph 43% 0.00 in
15:34 58.7 °F 36.8 °F 29.94 in SW 4.0 mph 9.0 mph 44% 0.00 in
15:39 58.6 °F 36.7 °F 29.94 in South 6.0 mph 13.0 mph 44% 0.00 in
15:44 58.5 °F 37.2 °F 29.95 in SW 5.0 mph 13.0 mph 45% 0.00 in
15:49 58.4 °F 36.6 °F 29.95 in SW 5.0 mph 11.0 mph 44% 0.00 in
15:54 58.2 °F 36.9 °F 29.94 in SSW 4.0 mph 10.0 mph 45% 0.00 in
15:59 58.0 °F 36.8 °F 29.95 in SW 4.0 mph 10.0 mph 45% 0.00 in
16:04 57.8 °F 36.6 °F 29.94 in SW 5.0 mph 14.0 mph 45% 0.00 in
16:09 57.6 °F 37.0 °F 29.94 in SSW 6.0 mph 14.0 mph 46% 0.00 in
16:14 57.2 °F 37.7 °F 29.94 in SW 5.0 mph 11.0 mph 48% 0.00 in
16:19 56.9 °F 36.9 °F 29.94 in SW 5.0 mph 7.0 mph 47% 0.00 in
16:24 56.6 °F 38.2 °F 29.95 in SW 7.0 mph 9.0 mph 50% 0.00 in
16:29 56.3 °F 37.9 °F 29.95 in SW 4.0 mph 11.0 mph 50% 0.00 in
16:34 55.7 °F 38.8 °F 29.95 in WSW 4.0 mph 9.0 mph 53% 0.00 in
16:39 55.0 °F 40.0 °F 29.95 in SSW 4.0 mph 6.0 mph 57% 0.00 in
16:44 54.1 °F 40.9 °F 29.95 in SW 4.0 mph 6.0 mph 61% 0.01 in
16:49 53.1 °F 41.6 °F 29.96 in SW 3.0 mph 6.0 mph 65% 0.01 in
16:54 52.0 °F 41.4 °F 29.96 in WSW 3.0 mph 6.0 mph 67% 0.02 in
16:59 51.0 °F 41.2 °F 29.97 in WSW 3.0 mph 8.0 mph 69% 0.03 in
17:04 50.0 °F 40.6 °F 29.97 in WSW 4.0 mph 8.0 mph 70% 0.03 in
17:09 49.1 °F 40.8 °F 29.97 in WSW 4.0 mph 8.0 mph 73% 0.04 in
17:14 48.3 °F 40.7 °F 29.97 in WSW 3.0 mph 7.0 mph 75% 0.04 in
17:19 47.6 °F 40.7 °F 29.96 in WSW 2.0 mph 5.0 mph 77% 0.05 in
17:24 47.2 °F 40.7 °F 29.96 in SW 3.0 mph 4.0 mph 78% 0.05 in
17:29 46.7 °F 40.5 °F 29.96 in SW 1.0 mph 3.0 mph 79% 0.05 in
17:34 46.5 °F 41.0 °F 29.96 in SW 1.0 mph 3.0 mph 81% 0.05 in
17:39 46.4 °F 40.9 °F 29.96 in SW 2.0 mph 5.0 mph 81% 0.05 in
17:44 46.2 °F 41.0 °F 29.96 in SSW 2.0 mph 6.0 mph 82% 0.05 in
17:49 45.9 °F 40.7 °F 29.96 in SSW 1.0 mph 6.0 mph 82% 0.05 in
17:54 45.9 °F 41.0 °F 29.96 in SW 1.0 mph 3.0 mph 83% 0.04 in
17:59 45.7 °F 40.8 °F 29.96 in SW 2.0 mph 3.0 mph 83% 0.03 in
18:04 45.7 °F 41.1 °F 29.97 in West 2.0 mph 3.0 mph 84% 0.03 in
18:09 45.7 °F 41.1 °F 29.99 in West 2.0 mph 5.0 mph 84% 0.02 in
18:14 45.7 °F 41.1 °F 29.97 in West 2.0 mph 5.0 mph 84% 0.02 in
18:19 45.9 °F 41.3 °F 29.97 in SW 3.0 mph 7.0 mph 84% 0.01 in
18:24 46.1 °F 41.2 °F 29.97 in SW 3.0 mph 7.0 mph 83% 0.01 in
18:29 46.2 °F 41.3 °F 29.97 in SW 2.0 mph 6.0 mph 83% 0.01 in
18:34 46.2 °F 41.3 °F 29.97 in SW 1.0 mph 3.0 mph 83% 0.01 in
18:39 46.2 °F 41.3 °F 29.97 in SW 1.0 mph 3.0 mph 83% 0.01 in
18:44 46.1 °F 41.2 °F 29.97 in SW 1.0 mph 3.0 mph 83% 0.00 in
18:49 46.0 °F 41.1 °F 29.97 in SSW 2.0 mph 4.0 mph 83% 0.00 in
18:54 46.0 °F 41.4 °F 29.97 in SSW 2.0 mph 4.0 mph 84% 0.00 in
18:59 46.0 °F 41.4 °F 29.96 in SW 1.0 mph 3.0 mph 84% 0.00 in
19:04 46.0 °F 41.4 °F 29.96 in Calm   2.0 mph 84% 0.00 in
19:09 46.0 °F 41.4 °F 29.96 in SW 2.0 mph 2.0 mph 84% 0.00 in
19:14 46.1 °F 41.5 °F 29.96 in SW 1.0 mph 4.0 mph 84% 0.00 in
19:19 46.2 °F 41.9 °F 29.96 in SW 1.0 mph 4.0 mph 85% 0.00 in
19:24 46.3 °F 42.0 °F 29.96 in SW 1.0 mph 3.0 mph 85% 0.00 in
19:29 46.5 °F 42.2 °F 29.97 in SW 2.0 mph 3.0 mph 85% 0.00 in
19:34 46.5 °F 42.2 °F 29.97 in SW 2.0 mph 4.0 mph 85% 0.00 in
19:39 46.7 °F 42.4 °F 29.97 in Calm   4.0 mph 85% 0.00 in
19:44 46.8 °F 42.5 °F 29.97 in SW 1.0 mph 4.0 mph 85% 0.00 in
19:49 47.0 °F 43.0 °F 29.97 in SW 1.0 mph 3.0 mph 86% 0.00 in
19:54 47.0 °F 42.7 °F 29.97 in SSW 3.0 mph 4.0 mph 85% 0.00 in
19:59 46.9 °F 42.6 °F 29.97 in SW 2.0 mph 6.0 mph 85% 0.00 in
20:04 46.8 °F 42.5 °F 29.97 in SW 1.0 mph 6.0 mph 85% 0.00 in
20:09 46.6 °F 42.3 °F 29.97 in SSW 1.0 mph 3.0 mph 85% 0.00 in
20:14 46.3 °F 42.0 °F 29.97 in SSW 2.0 mph 4.0 mph 85% 0.00 in
20:19 46.0 °F 42.0 °F 29.97 in SSW 2.0 mph 4.0 mph 86% 0.00 in
20:24 45.9 °F 41.9 °F 29.97 in SSW 2.0 mph 4.0 mph 86% 0.00 in
20:29 45.7 °F 41.8 °F 29.97 in SSW 3.0 mph 5.0 mph 86% 0.00 in
20:34 45.6 °F 41.7 °F 29.97 in South 3.0 mph 5.0 mph 86% 0.00 in
20:39 45.6 °F 42.0 °F 29.97 in SSW 2.0 mph 4.0 mph 87% 0.00 in
20:44 45.7 °F 42.1 °F 29.97 in SSW 2.0 mph 4.0 mph 87% 0.00 in
20:49 45.5 °F 41.9 °F 29.97 in SSW 2.0 mph 4.0 mph 87% 0.00 in
20:54 45.7 °F 42.1 °F 29.97 in SSW 3.0 mph 4.0 mph 87% 0.00 in
20:59 45.7 °F 42.1 °F 29.97 in South 3.0 mph 4.0 mph 87% 0.00 in
21:04 45.7 °F 42.1 °F 29.97 in South 3.0 mph 5.0 mph 87% 0.00 in
21:09 45.7 °F 42.1 °F 29.97 in South 2.0 mph 4.0 mph 87% 0.00 in
21:14 45.7 °F 42.3 °F 29.98 in SW 3.0 mph 5.0 mph 88% 0.00 in
21:19 45.7 °F 42.1 °F 29.98 in SSW 3.0 mph 6.0 mph 87% 0.00 in
21:24 45.7 °F 42.1 °F 29.98 in SSW 3.0 mph 6.0 mph 87% 0.00 in
21:29 45.7 °F 42.1 °F 29.98 in SSW 3.0 mph 5.0 mph 87% 0.00 in
21:34 45.7 °F 42.3 °F 29.98 in South 2.0 mph 6.0 mph 88% 0.00 in
21:39 45.7 °F 42.3 °F 29.98 in SW 2.0 mph 6.0 mph 88% 0.00 in
21:44 45.7 °F 42.3 °F 29.98 in SSW 2.0 mph 6.0 mph 88% 0.00 in
21:49 45.8 °F 42.4 °F 29.98 in SW 2.0 mph 6.0 mph 88% 0.00 in
21:54 45.7 °F 42.3 °F 29.98 in SW 3.0 mph 5.0 mph 88% 0.00 in
21:59 45.8 °F 42.4 °F 29.98 in SSW 3.0 mph 6.0 mph 88% 0.00 in
22:04 45.8 °F 42.4 °F 29.97 in SSW 3.0 mph 6.0 mph 88% 0.00 in
22:09 45.9 °F 42.5 °F 29.97 in SSW 1.0 mph 4.0 mph 88% 0.00 in
22:14 46.0 °F 42.6 °F 29.97 in SW 2.0 mph 5.0 mph 88% 0.00 in
22:19 46.0 °F 42.6 °F 29.97 in SSW 4.0 mph 4.0 mph 88% 0.00 in
22:24 46.1 °F 42.7 °F 29.97 in SSW 2.0 mph 4.0 mph 88% 0.00 in
22:29 46.1 °F 42.7 °F 29.97 in West 1.0 mph 3.0 mph 88% 0.00 in
22:34 46.2 °F 42.8 °F 29.97 in Calm   2.0 mph 88% 0.00 in
22:39 46.2 °F 42.8 °F 29.97 in Calm     88% 0.00 in
22:44 46.1 °F 42.7 °F 29.97 in Calm   2.0 mph 88% 0.00 in
22:49 46.1 °F 42.7 °F 29.97 in Calm     88% 0.00 in
22:54 46.1 °F 42.7 °F 29.96 in Calm     88% 0.00 in
22:59 46.1 °F 42.7 °F 29.97 in Calm     88% 0.00 in
23:04 46.1 °F 42.7 °F 29.96 in Calm     88% 0.00 in
23:09 46.0 °F 42.6 °F 29.97 in Calm     88% 0.00 in
23:14 46.1 °F 42.7 °F 29.96 in Calm     88% 0.00 in
23:19 46.2 °F 42.8 °F 29.96 in Calm     88% 0.00 in
23:24 46.2 °F 42.8 °F 29.96 in Calm     88% 0.00 in
23:29 46.3 °F 42.9 °F 29.96 in Calm     88% 0.00 in
23:34 46.3 °F 42.9 °F 29.96 in Calm     88% 0.00 in
23:39 46.3 °F 42.9 °F 29.96 in Calm     88% 0.00 in
23:44 46.2 °F 42.8 °F 29.97 in Calm     88% 0.00 in
23:49 46.1 °F 42.7 °F 29.96 in Calm     88% 0.00 in
23:54 46.1 °F 42.7 °F 29.96 in Calm     88% 0.00 in
23:59 46.1 °F 42.7 °F 29.95 in Calm     88% 0.00 in
Buffalo, New York, USA
Compliments of Weather Underground - 2.5 mb